createdAt,value
2022-08-31T00:00:33.401Z,1.25
2022-08-31T00:03:19.629Z,1.17
2022-08-31T00:05:50.230Z,1.40
2022-08-31T00:08:18.594Z,1.50
2022-08-31T00:10:47.908Z,1.30
2022-08-31T00:13:18.226Z,1.15
2022-08-31T00:15:46.905Z,1.40
2022-08-31T00:18:16.262Z,1.20
2022-08-31T00:20:45.560Z,1.35
2022-08-31T00:23:17.397Z,1.33
2022-08-31T00:25:49.971Z,1.33
2022-08-31T00:28:20.641Z,1.45
2022-08-31T00:30:49.773Z,1.45
2022-08-31T00:33:18.461Z,1.30
2022-08-31T00:35:47.079Z,1.25
2022-08-31T00:38:15.933Z,1.23
2022-08-31T00:40:46.706Z,1.35
2022-08-31T00:43:40.504Z,1.35
2022-08-31T00:46:11.384Z,1.20
2022-08-31T00:48:45.846Z,1.35
2022-08-31T00:51:18.705Z,1.33
2022-08-31T00:53:48.074Z,1.30
2022-08-31T00:56:20.876Z,1.55
2022-08-31T00:58:54.848Z,1.63
2022-08-31T01:01:24.145Z,1.35
2022-08-31T01:03:52.700Z,1.20
2022-08-31T01:06:21.661Z,1.20
2022-08-31T01:08:51.338Z,1.00
2022-08-31T01:11:20.823Z,1.38
2022-08-31T01:13:50.751Z,1.48
2022-08-31T01:16:25.392Z,1.45
2022-08-31T01:18:56.823Z,1.50
2022-08-31T01:21:30.137Z,1.65
2022-08-31T01:24:02.881Z,1.40
2022-08-31T01:26:33.395Z,1.10
2022-08-31T01:29:06.667Z,1.73
2022-08-31T01:31:39.877Z,1.55
2022-08-31T01:34:08.472Z,1.35
2022-08-31T01:36:39.658Z,1.40
2022-08-31T01:39:11.056Z,1.30
2022-08-31T01:41:43.351Z,1.30
2022-08-31T01:44:14.814Z,1.58
2022-08-31T01:46:44.563Z,1.40
2022-08-31T01:49:13.600Z,1.75
2022-08-31T01:51:42.545Z,1.65
2022-08-31T01:54:12.777Z,1.40
2022-08-31T01:56:46.174Z,1.38
2022-08-31T01:59:17.125Z,1.45
2022-08-31T02:01:48.628Z,1.80
2022-08-31T02:04:22.045Z,1.30
2022-08-31T02:06:53.519Z,1.30
2022-08-31T02:09:23.651Z,1.55
2022-08-31T02:11:52.836Z,1.38
2022-08-31T02:14:22.054Z,1.20
2022-08-31T02:16:50.925Z,1.55
2022-08-31T02:19:21.274Z,2.10
2022-08-31T02:21:49.726Z,1.30
2022-08-31T02:24:18.119Z,1.40
2022-08-31T02:26:53.175Z,1.50
2022-08-31T02:29:22.729Z,1.85
2022-08-31T02:31:51.833Z,1.27
2022-08-31T02:34:20.615Z,1.30
2022-08-31T02:36:48.850Z,1.60
2022-08-31T02:39:17.811Z,1.50
2022-08-31T02:41:48.381Z,1.05
2022-08-31T02:44:16.767Z,1.20
2022-08-31T02:46:45.234Z,1.48
2022-08-31T02:49:13.677Z,1.25
2022-08-31T02:51:42.766Z,1.17
2022-08-31T02:54:12.373Z,1.38
2022-08-31T02:56:40.918Z,1.35
2022-08-31T02:59:11.161Z,0.95
2022-08-31T03:01:40.895Z,1.40
2022-08-31T03:04:09.460Z,1.20
2022-08-31T03:06:38.062Z,1.17
2022-08-31T03:09:06.664Z,1.00
2022-08-31T03:11:34.977Z,1.08
2022-08-31T03:14:03.210Z,0.95
2022-08-31T03:16:32.907Z,1.10
2022-08-31T03:19:01.085Z,0.90
2022-08-31T03:21:29.811Z,1.10
2022-08-31T03:23:58.572Z,0.90
2022-08-31T03:26:26.851Z,0.80
2022-08-31T03:28:55.866Z,0.80
2022-08-31T03:31:24.923Z,0.80
2022-08-31T03:33:55.367Z,0.90
2022-08-31T03:36:23.570Z,0.88
2022-08-31T03:38:51.872Z,0.90
2022-08-31T03:41:24.800Z,0.82
2022-08-31T03:43:53.632Z,0.95
2022-08-31T03:46:22.409Z,0.80
2022-08-31T03:48:50.648Z,0.80
2022-08-31T03:51:20.307Z,0.80
2022-08-31T03:53:48.606Z,0.70
2022-08-31T03:56:16.970Z,0.70
2022-08-31T03:58:45.375Z,0.90
2022-08-31T04:01:14.987Z,1.00
2022-08-31T04:03:43.853Z,0.80
2022-08-31T04:06:13.931Z,0.80
2022-08-31T04:08:43.751Z,0.73
2022-08-31T04:11:16.198Z,0.80
2022-08-31T04:13:45.153Z,0.80
2022-08-31T04:16:16.040Z,0.93
2022-08-31T04:18:46.545Z,0.90
2022-08-31T04:21:17.686Z,0.80
2022-08-31T04:23:47.480Z,0.77
2022-08-31T04:26:20.919Z,0.68
2022-08-31T04:28:49.810Z,0.90
2022-08-31T04:31:19.346Z,0.63
2022-08-31T04:33:48.207Z,0.73
2022-08-31T04:36:20.472Z,0.70
2022-08-31T04:38:54.878Z,0.70
2022-08-31T04:41:26.313Z,1.08
2022-08-31T04:43:57.244Z,0.60
2022-08-31T04:46:25.976Z,0.73
2022-08-31T04:48:54.496Z,1.00
2022-08-31T04:51:25.852Z,0.77
2022-08-31T04:53:56.527Z,0.90
2022-08-31T04:56:27.578Z,0.80
2022-08-31T04:58:58.854Z,0.70
2022-08-31T05:01:36.119Z,0.90
2022-08-31T05:04:13.737Z,0.85
2022-08-31T05:06:45.823Z,0.80
2022-08-31T05:09:19.696Z,1.00
2022-08-31T05:11:49.968Z,0.95
2022-08-31T05:14:18.392Z,1.05
2022-08-31T05:16:46.675Z,1.25
2022-08-31T05:19:15.460Z,1.25
2022-08-31T05:21:45.398Z,1.20
2022-08-31T05:24:18.438Z,1.05
2022-08-31T05:26:51.862Z,0.90
2022-08-31T05:29:23.680Z,1.10
2022-08-31T05:31:52.917Z,1.10
2022-08-31T05:34:22.365Z,1.10
2022-08-31T05:36:53.726Z,1.30
2022-08-31T05:39:24.062Z,1.00
2022-08-31T05:41:53.185Z,1.05
2022-08-31T05:44:22.867Z,1.05
2022-08-31T05:49:32.642Z,1.80
2022-08-31T05:52:01.710Z,0.88
2022-08-31T05:54:31.406Z,0.90
2022-08-31T05:57:01.159Z,1.27
2022-08-31T05:59:30.905Z,0.98
2022-08-31T06:01:59.950Z,0.98
2022-08-31T06:04:31.143Z,1.10
2022-08-31T06:06:59.434Z,1.10
2022-08-31T06:09:31.574Z,0.98
2022-08-31T06:11:59.951Z,1.00
2022-08-31T06:14:28.127Z,1.10
2022-08-31T06:16:56.744Z,1.25
2022-08-31T06:19:25.776Z,1.38
2022-08-31T06:21:54.104Z,1.40
2022-08-31T06:24:22.571Z,1.60
2022-08-31T06:26:58.004Z,1.77
2022-08-31T06:29:31.493Z,1.10
2022-08-31T06:32:10.978Z,0.88
2022-08-31T06:34:43.594Z,1.08
2022-08-31T06:37:18.890Z,0.90
2022-08-31T06:39:47.941Z,1.08
2022-08-31T06:42:17.895Z,0.70
2022-08-31T06:44:46.418Z,0.80
2022-08-31T06:47:15.489Z,0.90
2022-08-31T06:49:43.969Z,0.90
2022-08-31T06:52:12.516Z,0.80
2022-08-31T06:54:40.703Z,0.82
2022-08-31T06:57:08.954Z,1.10
2022-08-31T06:59:38.699Z,0.88
2022-08-31T07:02:07.080Z,0.88
2022-08-31T07:04:37.328Z,0.90
2022-08-31T07:07:09.080Z,0.70
2022-08-31T07:09:37.306Z,0.90
2022-08-31T07:12:06.643Z,0.82
2022-08-31T07:14:35.659Z,1.30
2022-08-31T07:17:05.653Z,0.90
2022-08-31T07:19:34.026Z,0.95
2022-08-31T07:22:06.059Z,1.00
2022-08-31T07:24:35.500Z,0.93
2022-08-31T07:27:09.993Z,1.00
2022-08-31T07:29:41.317Z,0.93
2022-08-31T07:32:13.774Z,0.70
2022-08-31T07:34:44.044Z,0.93
2022-08-31T07:37:30.313Z,0.95
2022-08-31T07:40:16.385Z,0.95
2022-08-31T07:42:46.804Z,0.98
2022-08-31T07:45:22.592Z,1.00
2022-08-31T07:47:55.129Z,1.02
2022-08-31T07:50:23.980Z,1.05
2022-08-31T07:52:55.585Z,0.75
2022-08-31T07:55:26.251Z,1.00
2022-08-31T07:57:56.446Z,1.10
2022-08-31T08:00:28.081Z,0.88
2022-08-31T08:03:01.554Z,1.30
2022-08-31T08:05:31.879Z,1.83
2022-08-31T08:08:09.416Z,0.82
2022-08-31T08:10:42.768Z,0.90
2022-08-31T08:13:12.570Z,0.80
2022-08-31T08:15:41.202Z,0.90
2022-08-31T08:18:13.352Z,0.88
2022-08-31T08:20:42.066Z,0.98
2022-08-31T08:23:28.641Z,0.95
2022-08-31T08:26:01.587Z,1.08
2022-08-31T08:28:40.196Z,1.20
2022-08-31T08:31:15.005Z,0.93
2022-08-31T08:33:45.456Z,1.00
2022-08-31T08:36:18.336Z,1.08
2022-08-31T08:38:50.456Z,1.25
2022-08-31T08:41:21.704Z,1.00
2022-08-31T08:43:53.165Z,1.00
2022-08-31T08:46:35.071Z,0.90
2022-08-31T08:49:19.778Z,1.20
2022-08-31T08:51:54.454Z,1.40
2022-08-31T08:54:31.845Z,1.25
2022-08-31T08:57:01.491Z,1.23
2022-08-31T08:59:30.523Z,1.10
2022-08-31T09:02:04.995Z,1.15
2022-08-31T09:05:09.502Z,1.13
2022-08-31T09:07:56.235Z,1.23
2022-08-31T09:10:33.378Z,1.20
2022-08-31T09:13:22.369Z,1.38
2022-08-31T09:16:12.778Z,1.10
2022-08-31T09:18:49.704Z,1.30
2022-08-31T09:21:25.249Z,1.20
2022-08-31T09:24:02.375Z,1.10
2022-08-31T09:26:33.782Z,1.17
2022-08-31T09:29:03.745Z,1.00
2022-08-31T09:31:39.778Z,1.00
2022-08-31T09:34:28.464Z,1.45
2022-08-31T09:37:16.337Z,1.13
2022-08-31T09:39:48.437Z,1.08
2022-08-31T09:42:30.890Z,1.45
2022-08-31T09:45:02.758Z,1.30
2022-08-31T09:47:48.407Z,1.33
2022-08-31T09:50:31.624Z,1.10
2022-08-31T09:53:36.562Z,1.15
2022-08-31T09:56:17.473Z,0.90
2022-08-31T09:58:50.742Z,1.17
2022-08-31T10:01:30.102Z,1.17
2022-08-31T10:04:20.447Z,1.20
2022-08-31T10:06:56.488Z,1.00
2022-08-31T10:09:37.111Z,1.00
2022-08-31T10:12:12.565Z,1.00
2022-08-31T10:14:51.793Z,1.00
2022-08-31T10:17:32.036Z,1.00
2022-08-31T10:20:08.150Z,1.10
2022-08-31T10:22:42.057Z,1.30
2022-08-31T10:25:22.374Z,0.98
2022-08-31T10:27:59.706Z,1.00
2022-08-31T10:30:41.736Z,1.42
2022-08-31T10:33:17.720Z,1.23
2022-08-31T10:35:55.734Z,1.08
2022-08-31T10:38:35.755Z,0.93
2022-08-31T10:41:15.101Z,1.48
2022-08-31T10:43:53.485Z,1.00
2022-08-31T10:46:21.890Z,1.02
2022-08-31T10:48:54.277Z,1.02
2022-08-31T10:51:31.353Z,1.17
2022-08-31T10:54:24.585Z,0.98
2022-08-31T10:57:09.349Z,1.08
2022-08-31T10:59:56.154Z,1.00
2022-08-31T11:02:42.207Z,1.25
2022-08-31T11:05:36.160Z,1.10
2022-08-31T11:08:28.890Z,1.05
2022-08-31T11:10:59.448Z,0.90
2022-08-31T11:14:00.367Z,1.00
2022-08-31T11:16:57.033Z,1.00
2022-08-31T11:20:00.057Z,0.90
2022-08-31T11:23:42.195Z,0.88
2022-08-31T11:26:52.865Z,1.00
2022-08-31T11:29:41.463Z,1.20
2022-08-31T11:32:21.041Z,1.10
2022-08-31T11:34:53.461Z,0.95
2022-08-31T11:37:52.488Z,0.90
2022-08-31T11:41:03.606Z,1.10
2022-08-31T11:43:52.161Z,1.05
2022-08-31T11:47:06.934Z,1.15
2022-08-31T11:49:47.802Z,0.90
2022-08-31T11:55:35.171Z,0.93
2022-08-31T12:01:43.076Z,0.85
2022-08-31T12:05:05.676Z,0.98
2022-08-31T12:07:43.708Z,0.93
2022-08-31T12:10:35.010Z,1.02
2022-08-31T12:13:30.849Z,1.00
2022-08-31T12:16:11.998Z,0.80
2022-08-31T12:18:58.912Z,1.30
2022-08-31T12:21:59.389Z,0.95
2022-08-31T12:24:39.608Z,1.10
2022-08-31T12:27:33.272Z,0.80
2022-08-31T12:30:22.750Z,1.10
2022-08-31T12:33:00.200Z,1.05
2022-08-31T12:35:32.192Z,0.90
2022-08-31T12:38:04.731Z,1.17
2022-08-31T12:40:35.912Z,1.20
2022-08-31T12:43:17.302Z,1.10
2022-08-31T12:46:40.224Z,1.02
2022-08-31T12:49:39.975Z,1.02
2022-08-31T12:52:24.380Z,1.00
2022-08-31T12:55:10.048Z,1.00
2022-08-31T12:58:05.851Z,0.90
2022-08-31T13:00:37.325Z,0.85
2022-08-31T13:03:20.966Z,0.90
2022-08-31T13:06:08.307Z,0.90
2022-08-31T13:08:41.180Z,1.00
2022-08-31T13:11:25.697Z,0.90
2022-08-31T13:14:18.656Z,1.00
2022-08-31T13:16:50.381Z,1.13
2022-08-31T13:19:26.846Z,1.00
2022-08-31T13:21:59.998Z,1.05
2022-08-31T13:24:32.860Z,0.90
2022-08-31T13:27:20.326Z,0.88
2022-08-31T13:29:51.225Z,0.88
2022-08-31T13:32:33.363Z,0.95
2022-08-31T13:35:04.877Z,0.80
2022-08-31T13:37:40.035Z,0.98
2022-08-31T13:40:13.611Z,1.00
2022-08-31T13:42:46.793Z,1.05
2022-08-31T13:45:29.130Z,1.02
2022-08-31T13:48:01.530Z,1.10
2022-08-31T13:50:35.305Z,1.10
2022-08-31T13:56:01.307Z,0.90
2022-08-31T13:58:33.518Z,0.93
2022-08-31T14:01:24.975Z,1.02
2022-08-31T14:03:58.964Z,1.00
2022-08-31T14:06:34.999Z,1.00
2022-08-31T14:09:17.099Z,0.88
2022-08-31T14:11:53.318Z,0.90
2022-08-31T14:14:36.254Z,1.00
2022-08-31T14:17:09.706Z,0.80
2022-08-31T14:19:39.219Z,0.90
2022-08-31T14:22:28.403Z,0.98
2022-08-31T14:24:56.830Z,1.00
2022-08-31T14:27:27.013Z,0.93
2022-08-31T14:29:58.318Z,1.00
2022-08-31T14:32:29.356Z,1.10
2022-08-31T14:34:59.054Z,0.80
2022-08-31T14:37:30.155Z,0.90
2022-08-31T14:40:07.034Z,1.00
2022-08-31T14:42:39.136Z,1.02
2022-08-31T14:45:18.771Z,1.27
2022-08-31T14:47:52.179Z,1.05
2022-08-31T14:50:27.058Z,1.00
2022-08-31T14:52:57.652Z,0.98
2022-08-31T14:55:30.241Z,1.00
2022-08-31T14:58:05.256Z,0.70
2022-08-31T15:03:08.284Z,0.93
2022-08-31T15:05:39.247Z,1.30
2022-08-31T15:08:08.679Z,1.00
2022-08-31T15:10:38.140Z,0.80
2022-08-31T15:13:16.124Z,1.00
2022-08-31T15:15:47.678Z,0.75
2022-08-31T15:18:16.643Z,0.70
2022-08-31T15:20:46.500Z,0.90
2022-08-31T15:23:22.718Z,0.70
2022-08-31T15:25:51.739Z,0.85
2022-08-31T15:28:20.400Z,0.77
2022-08-31T15:30:51.023Z,0.90
2022-08-31T15:33:21.590Z,0.80
2022-08-31T15:35:49.851Z,0.60
2022-08-31T15:38:18.505Z,0.90
2022-08-31T15:40:46.828Z,0.82
2022-08-31T15:43:15.844Z,0.90
2022-08-31T15:45:44.635Z,0.90
2022-08-31T15:48:31.891Z,0.93
2022-08-31T15:51:01.248Z,1.05
2022-08-31T15:53:30.929Z,0.90
2022-08-31T15:56:05.602Z,1.00
2022-08-31T15:58:34.900Z,1.00
2022-08-31T16:01:05.324Z,1.00
2022-08-31T16:03:35.779Z,0.80
2022-08-31T16:06:13.520Z,0.70
2022-08-31T16:08:42.588Z,0.98
2022-08-31T16:11:13.423Z,0.98
2022-08-31T16:13:49.914Z,0.90
2022-08-31T16:16:20.354Z,0.80
2022-08-31T16:18:52.745Z,1.30
2022-08-31T16:21:22.091Z,0.90
2022-08-31T16:23:59.505Z,1.00
2022-08-31T16:26:31.313Z,0.95
2022-08-31T16:29:01.621Z,0.90
2022-08-31T16:31:31.601Z,0.93
2022-08-31T16:34:01.253Z,1.00
2022-08-31T16:36:38.002Z,1.13
2022-08-31T16:39:06.462Z,0.82
2022-08-31T16:41:36.069Z,0.80
2022-08-31T16:44:21.605Z,0.95
2022-08-31T16:46:53.431Z,1.05
2022-08-31T16:49:34.213Z,1.10
2022-08-31T16:52:03.979Z,1.38
2022-08-31T16:54:41.363Z,1.10
2022-08-31T16:57:10.794Z,1.00
2022-08-31T16:59:41.848Z,1.10
2022-08-31T17:02:13.972Z,1.05
2022-08-31T17:04:52.560Z,1.02
2022-08-31T17:07:28.933Z,1.00
2022-08-31T17:10:07.282Z,0.95
2022-08-31T17:12:42.029Z,1.17
2022-08-31T17:15:13.887Z,1.08
2022-08-31T17:17:46.233Z,1.08
2022-08-31T17:20:16.767Z,1.30
2022-08-31T17:22:48.602Z,1.17
2022-08-31T17:25:17.794Z,0.90
2022-08-31T17:27:46.046Z,0.80
2022-08-31T17:30:19.903Z,0.85
2022-08-31T17:32:56.051Z,1.15
2022-08-31T17:35:25.904Z,1.00
2022-08-31T17:37:55.501Z,1.00
2022-08-31T17:40:23.921Z,0.82
2022-08-31T17:42:55.004Z,1.00
2022-08-31T17:45:28.310Z,0.80
2022-08-31T17:47:56.681Z,0.80
2022-08-31T17:50:26.620Z,0.90
2022-08-31T17:52:55.571Z,1.10
2022-08-31T17:55:38.422Z,1.10
2022-08-31T17:58:15.599Z,1.40
2022-08-31T18:00:54.680Z,1.27
2022-08-31T18:03:25.763Z,1.23
2022-08-31T18:06:00.613Z,1.20
2022-08-31T18:08:29.184Z,0.95
2022-08-31T18:10:57.476Z,1.20
2022-08-31T18:13:33.370Z,1.10
2022-08-31T18:16:03.244Z,1.23
2022-08-31T18:18:31.889Z,1.33
2022-08-31T18:21:05.518Z,1.13
2022-08-31T18:23:40.062Z,0.93
2022-08-31T18:26:23.366Z,1.10
2022-08-31T18:28:53.188Z,1.25
2022-08-31T18:31:32.459Z,1.02
2022-08-31T18:34:03.963Z,0.82
2022-08-31T18:36:38.776Z,1.30
2022-08-31T18:39:13.739Z,1.33
2022-08-31T18:42:03.507Z,1.00
2022-08-31T18:44:50.894Z,1.15
2022-08-31T18:47:21.152Z,1.23
2022-08-31T18:49:50.765Z,1.25
2022-08-31T18:52:22.750Z,1.10
2022-08-31T18:54:52.705Z,1.10
2022-08-31T18:57:23.804Z,1.00
2022-08-31T18:59:53.399Z,1.20
2022-08-31T19:02:23.113Z,1.30
2022-08-31T19:04:52.789Z,1.48
2022-08-31T19:07:23.043Z,1.77
2022-08-31T19:09:55.059Z,1.60
2022-08-31T19:12:24.643Z,1.40
2022-08-31T19:14:55.428Z,1.40
2022-08-31T19:17:24.331Z,1.33
2022-08-31T19:19:56.438Z,1.70
2022-08-31T19:22:26.213Z,1.80
2022-08-31T19:24:54.602Z,1.67
2022-08-31T19:27:23.559Z,1.70
2022-08-31T19:29:55.722Z,1.50
2022-08-31T19:32:24.075Z,1.48
2022-08-31T19:34:52.424Z,1.85
2022-08-31T19:37:21.271Z,1.40
2022-08-31T19:39:51.008Z,2.13
2022-08-31T19:42:19.871Z,1.30
2022-08-31T19:45:22.494Z,1.17
2022-08-31T19:47:38.891Z,1.30
2022-08-31T19:50:13.741Z,1.10
2022-08-31T19:52:43.271Z,1.17
2022-08-31T19:55:14.172Z,1.30
2022-08-31T19:57:43.408Z,1.65
2022-08-31T20:00:15.396Z,1.40
2022-08-31T20:02:44.865Z,1.20
2022-08-31T20:05:15.290Z,1.52
2022-08-31T20:07:45.319Z,1.30
2022-08-31T20:10:15.520Z,1.42
2022-08-31T20:12:44.827Z,1.27
2022-08-31T20:15:15.433Z,1.58
2022-08-31T20:17:43.744Z,1.27
2022-08-31T20:20:13.482Z,1.77
2022-08-31T20:22:41.877Z,1.50
2022-08-31T20:25:18.849Z,1.52
2022-08-31T20:27:50.635Z,1.40
2022-08-31T20:30:19.421Z,1.30
2022-08-31T20:32:47.768Z,1.40
2022-08-31T20:35:16.345Z,1.48
2022-08-31T20:37:44.765Z,1.27
2022-08-31T20:40:17.191Z,1.58
2022-08-31T20:42:45.801Z,1.30
2022-08-31T20:45:15.765Z,1.63
2022-08-31T20:48:02.362Z,1.45
2022-08-31T20:50:30.839Z,1.75
2022-08-31T20:52:59.173Z,1.40
2022-08-31T20:55:29.801Z,1.10
2022-08-31T20:57:58.511Z,1.35
2022-08-31T21:00:29.944Z,1.42
2022-08-31T21:03:00.270Z,1.33
2022-08-31T21:05:38.676Z,1.40
2022-08-31T21:08:07.703Z,1.33
2022-08-31T21:10:40.066Z,1.27
2022-08-31T21:13:12.711Z,1.52
2022-08-31T21:15:46.132Z,1.23
2022-08-31T21:18:17.283Z,1.38
2022-08-31T21:20:46.478Z,1.40
2022-08-31T21:23:15.141Z,1.15
2022-08-31T21:25:45.717Z,1.67
2022-08-31T21:28:17.064Z,1.63
2022-08-31T21:30:50.081Z,1.48
2022-08-31T21:33:23.494Z,1.55
2022-08-31T21:36:02.054Z,1.50
2022-08-31T21:38:32.057Z,1.55
2022-08-31T21:41:00.958Z,1.63
2022-08-31T21:43:29.333Z,1.40
2022-08-31T21:46:08.398Z,1.55
2022-08-31T21:48:40.054Z,1.40
2022-08-31T21:51:14.458Z,1.52
2022-08-31T21:53:45.830Z,1.40
2022-08-31T21:56:14.406Z,1.52
2022-08-31T21:58:42.873Z,1.50
2022-08-31T22:01:18.062Z,1.60
2022-08-31T22:03:47.022Z,1.58
2022-08-31T22:06:22.011Z,1.50
2022-08-31T22:09:00.194Z,1.25
2022-08-31T22:11:32.080Z,1.38
2022-08-31T22:14:02.640Z,1.40
2022-08-31T22:16:32.572Z,1.38
2022-08-31T22:19:02.301Z,1.55
2022-08-31T22:21:34.657Z,1.52
2022-08-31T22:24:09.245Z,1.67
2022-08-31T22:26:42.768Z,1.63
2022-08-31T22:29:15.181Z,1.70
2022-08-31T22:31:44.886Z,1.60
2022-08-31T22:34:13.782Z,1.83
2022-08-31T22:36:45.398Z,1.20
2022-08-31T22:39:22.654Z,1.60
2022-08-31T22:41:51.779Z,1.40
2022-08-31T22:44:23.045Z,1.42
2022-08-31T22:46:53.694Z,1.60
2022-08-31T22:49:22.139Z,1.55
2022-08-31T22:51:50.423Z,1.98
2022-08-31T22:54:21.494Z,1.50
2022-08-31T22:56:50.670Z,1.65
2022-08-31T22:59:26.949Z,1.67
2022-08-31T23:02:00.588Z,1.50
2022-08-31T23:04:33.221Z,2.00
2022-08-31T23:07:04.168Z,1.70
2022-08-31T23:09:34.299Z,1.80
2022-08-31T23:12:05.927Z,1.50
2022-08-31T23:14:34.635Z,1.75
2022-08-31T23:17:08.905Z,1.73
2022-08-31T23:19:41.036Z,1.90
2022-08-31T23:22:12.394Z,2.08
2022-08-31T23:24:46.874Z,1.67
2022-08-31T23:27:19.333Z,1.67
2022-08-31T23:29:51.678Z,1.70
2022-08-31T23:32:26.231Z,1.95
2022-08-31T23:34:56.495Z,2.10
2022-08-31T23:37:26.021Z,1.90
2022-08-31T23:39:56.482Z,1.60
2022-08-31T23:42:27.785Z,1.73
2022-08-31T23:44:57.447Z,1.83
2022-08-31T23:47:31.796Z,1.90
2022-08-31T23:50:04.682Z,1.98
2022-08-31T23:52:41.375Z,1.50
2022-08-31T23:55:13.041Z,1.90
2022-08-31T23:57:41.813Z,2.17
